Time;durP1;ratioP1;P1;durP2;ratioP2;P2;SDS_P1;SDS_P2;PMS_P1;PMS_P2;Temp;Humidity;BMP_temperature;BMP_pressure;BME280_temperature;BME280_humidity;BME280_pressure;Samples;Min_cycle;Max_cycle;Signal;HPM_P1;HPM_P2
2023/01/08 00:01:38;;;;;;;318.75;137.20;;;;;;;8.27;82.66;99444.66;5066238;28;20033;-61
2023/01/08 00:04:20;;;;;;;285.98;133.82;;;;;;;8.61;82.57;99444.63;5061557;28;20040;-61
2023/01/08 00:07:09;;;;;;;293.55;138.65;;;;;;;8.46;82.36;99447.03;5063399;28;20106;-61
2023/01/08 00:09:51;;;;;;;293.98;134.70;;;;;;;8.36;82.37;99444.56;5066877;28;20040;-61
2023/01/08 00:12:40;;;;;;;300.45;135.25;;;;;;;8.31;82.63;99457.41;5053394;28;20143;-60
2023/01/08 00:15:22;;;;;;;290.58;128.98;;;;;;;8.66;82.58;99453.72;5057661;28;20052;-61
2023/01/08 00:18:12;;;;;;;299.38;132.70;;;;;;;8.64;81.56;99439.00;5066611;28;20392;-62
2023/01/08 00:21:01;;;;;;;302.13;133.25;;;;;;;9.16;80.61;99439.56;5066445;28;20090;-61
2023/01/08 00:23:50;;;;;;;302.30;130.80;;;;;;;9.29;80.00;99445.19;5066028;28;20102;-60
2023/01/08 00:26:39;;;;;;;304.67;128.43;;;;;;;9.14;80.91;99445.00;5066103;28;20125;-62
2023/01/08 00:29:28;;;;;;;328.48;132.70;;;;;;;8.80;81.13;99452.25;5056685;28;21501;-61
2023/01/08 00:32:09;;;;;;;312.25;128.65;;;;;;;8.82;82.57;99456.38;5057385;28;20041;-61
2023/01/08 00:35:00;;;;;;;319.42;132.05;;;;;;;8.89;81.75;99453.91;5071381;28;20048;-62
2023/01/08 00:37:43;;;;;;;328.90;128.80;;;;;;;8.88;82.50;99447.81;5071845;28;20137;-62
2023/01/08 00:40:33;;;;;;;331.17;123.30;;;;;;;8.86;82.42;99454.22;5064301;28;20056;-62
2023/01/08 00:43:21;;;;;;;323.50;127.55;;;;;;;8.98;83.18;99464.31;5064159;28;20121;-61
2023/01/08 00:46:10;;;;;;;331.33;126.28;;;;;;;9.14;82.18;99460.03;5024998;28;20053;-63
2023/01/08 00:49:02;;;;;;;315.83;124.65;;;;;;;9.01;82.34;99466.66;5008509;28;20038;-62
2023/01/08 00:51:43;;;;;;;343.90;125.13;;;;;;;8.76;83.42;99462.28;5039664;28;20041;-61
2023/01/08 00:54:34;;;;;;;333.83;128.40;;;;;;;8.65;83.73;99461.78;5038236;28;20940;-62
2023/01/08 00:57:15;;;;;;;355.35;132.07;;;;;;;8.63;84.04;99461.13;5040612;28;20544;-63
2023/01/08 01:00:05;;;;;;;358.73;135.52;;;;;;;8.52;84.15;99451.69;5035813;28;20045;-61
2023/01/08 01:02:46;;;;;;;369.63;136.93;;;;;;;8.48;84.38;99448.56;5045402;28;20059;-62
2023/01/08 01:05:36;;;;;;;377.15;138.20;;;;;;;8.44;84.95;99443.75;5045783;28;20069;-61
2023/01/08 01:08:17;;;;;;;372.80;141.07;;;;;;;8.46;84.67;99454.97;5025382;28;20045;-63
2023/01/08 01:11:11;;;;;;;373.02;143.40;;;;;;;8.45;84.55;99443.56;5033009;28;20048;-64
2023/01/08 01:14:00;;;;;;;383.90;142.70;;;;;;;8.44;85.15;99454.31;5025382;28;20122;-62
2023/01/08 01:16:42;;;;;;;400.33;142.88;;;;;;;8.41;85.28;99452.81;5019059;28;20045;-61
2023/01/08 01:19:31;;;;;;;384.13;143.35;;;;;;;8.39;84.87;99452.16;5045282;28;20114;-62
2023/01/08 01:22:14;;;;;;;404.92;142.98;;;;;;;8.63;85.05;99467.22;5045093;28;20472;-62
2023/01/08 01:25:03;;;;;;;400.88;139.60;;;;;;;8.82;84.47;99471.38;5044980;28;20953;-63
2023/01/08 01:27:46;;;;;;;366.55;133.57;;;;;;;8.62;84.48;99473.50;5044094;28;20052;-62
2023/01/08 01:30:34;;;;;;;337.95;126.60;;;;;;;8.50;84.74;99477.41;5045145;28;20053;-62
2023/01/08 01:33:24;;;;;;;355.13;123.13;;;;;;;8.42;85.31;99480.03;5034163;28;20048;-63
2023/01/08 01:36:06;;;;;;;342.90;123.40;;;;;;;8.48;85.28;99484.69;5044891;28;20114;-62
2023/01/08 01:38:58;;;;;;;368.15;125.63;;;;;;;8.59;85.62;99487.00;5044703;28;20688;-63
2023/01/08 01:41:44;;;;;;;342.92;119.40;;;;;;;8.52;85.51;99491.28;5023985;28;20059;-63
2023/01/08 01:44:42;;;;;;;332.05;115.00;;;;;;;8.36;85.74;99491.25;5039202;28;20049;-63
2023/01/08 01:47:38;;;;;;;302.63;112.10;;;;;;;8.95;85.48;99503.44;5043609;28;20068;-63
2023/01/08 01:50:38;;;;;;;297.42;112.85;;;;;;;8.61;84.99;99500.88;5036706;28;20555;-63
2023/01/08 01:53:31;;;;;;;287.98;107.75;;;;;;;8.41;85.39;99502.94;5043699;28;20144;-63
2023/01/08 01:56:15;;;;;;;336.55;108.65;;;;;;;8.34;85.99;99511.66;5044192;28;20045;-64
2023/01/08 01:59:04;;;;;;;295.92;110.97;;;;;;;8.39;86.07;99510.22;5044404;28;20051;-62
2023/01/08 02:01:48;;;;;;;295.73;109.63;;;;;;;8.30;86.03;99521.72;5042596;28;20055;-63
2023/01/08 02:04:37;;;;;;;313.73;110.93;;;;;;;8.36;86.14;99522.91;5024011;28;20037;-65
2023/01/08 02:07:57;;;;;;;288.45;115.80;;;;;;;8.45;85.84;99516.69;5039361;28;20048;-65
2023/01/08 02:10:55;;;;;;;323.65;111.90;;;;;;;8.22;86.23;99523.47;5043496;28;20119;-63
2023/01/08 02:13:49;;;;;;;272.40;112.10;;;;;;;8.13;86.79;99520.78;5034689;28;20586;-63
2023/01/08 02:16:45;;;;;;;284.33;112.18;;;;;;;8.33;86.49;99515.28;5044069;28;20060;-63
2023/01/08 02:19:46;;;;;;;308.75;114.85;;;;;;;8.14;86.20;99525.06;5043677;28;20096;-63
2023/01/08 02:22:33;;;;;;;307.20;111.43;;;;;;;8.01;86.36;99514.09;5043373;28;20064;-62
2023/01/08 02:25:29;;;;;;;356.52;115.70;;;;;;;7.92;86.75;99514.22;5042618;28;20045;-64
2023/01/08 02:28:13;;;;;;;336.73;115.63;;;;;;;7.92;86.89;99520.31;5043275;28;20975;-62
2023/01/08 02:31:04;;;;;;;298.35;110.05;;;;;;;7.83;87.24;99516.00;5043899;28;20148;-63
2023/01/08 02:33:46;;;;;;;318.90;110.70;;;;;;;7.84;87.31;99517.63;5043988;28;20056;-62
2023/01/08 02:36:42;;;;;;;296.83;110.00;;;;;;;7.90;87.24;99527.56;5036665;28;20535;-63
2023/01/08 02:40:11;;;;;;;322.35;105.45;;;;;;;7.80;86.53;99534.75;5019769;28;20137;-62
2023/01/08 02:43:17;;;;;;;306.38;109.45;;;;;;;7.83;87.38;99558.19;4982888;28;20415;-63
2023/01/08 02:46:19;;;;;;;274.63;106.60;;;;;;;8.00;86.89;99553.84;5023528;28;20099;-63
2023/01/08 02:49:03;;;;;;;270.42;104.82;;;;;;;8.17;87.17;99575.88;5039471;28;20583;-63
2023/01/08 02:52:03;;;;;;;270.20;107.15;;;;;;;8.31;86.65;99573.53;5035225;28;20152;-63
2023/01/08 02:54:41;;;;;;;346.83;109.17;;;;;;;7.94;86.18;99579.00;5038499;28;20339;-61
2023/01/08 02:57:39;;;;;;;270.83;109.43;;;;;;;7.83;86.44;99589.00;5038625;28;20053;-61
2023/01/08 03:00:15;;;;;;;297.75;110.15;;;;;;;7.96;86.79;99598.16;5038982;28;20143;-62
2023/01/08 03:03:26;;;;;;;314.83;117.18;;;;;;;8.03;87.09;99601.00;5037990;28;20126;-62
2023/01/08 03:06:13;;;;;;;364.67;134.98;;;;;;;8.07;87.17;99605.81;5032777;28;20736;-63
2023/01/08 03:09:09;;;;;;;356.05;130.38;;;;;;;8.08;86.95;99604.00;5038270;28;20376;-65
2023/01/08 03:11:59;;;;;;;357.27;135.05;;;;;;;8.20;86.88;99604.56;5038905;28;20053;-64
2023/01/08 03:14:55;;;;;;;369.33;138.43;;;;;;;8.16;86.44;99605.88;5035782;28;20092;-63
2023/01/08 03:17:42;;;;;;;399.88;136.18;;;;;;;8.05;86.87;99597.22;5040444;28;20060;-63
2023/01/08 03:20:32;;;;;;;369.35;134.25;;;;;;;8.11;87.20;99595.78;5037999;28;20056;-62
2023/01/08 03:23:17;;;;;;;348.67;135.68;;;;;;;8.22;87.30;99599.97;5037610;28;20056;-63
2023/01/08 03:26:13;;;;;;;370.33;131.15;;;;;;;8.18;86.42;99596.84;5037717;28;20037;-62
2023/01/08 03:28:52;;;;;;;340.60;131.00;;;;;;;8.21;85.93;99593.88;5032336;28;20053;-63
2023/01/08 03:31:43;;;;;;;352.50;130.38;;;;;;;8.10;85.84;99610.78;5033039;28;20048;-63
2023/01/08 03:34:36;;;;;;;334.25;127.07;;;;;;;7.95;86.22;99611.50;5033092;28;20045;-63
2023/01/08 03:37:24;;;;;;;317.27;123.07;;;;;;;7.98;85.78;99613.81;5022872;28;20119;-63
2023/01/08 03:40:17;;;;;;;307.73;125.18;;;;;;;8.21;85.60;99619.44;5022822;28;20437;-61
2023/01/08 03:43:05;;;;;;;302.00;125.53;;;;;;;8.41;85.13;99615.63;5024052;28;20045;-63
2023/01/08 03:46:09;;;;;;;302.77;123.28;;;;;;;8.30;84.98;99629.91;5030479;28;20045;-64
2023/01/08 03:48:45;;;;;;;285.00;116.60;;;;;;;8.11;85.05;99640.63;5020098;28;20714;-62
2023/01/08 03:51:51;;;;;;;272.20;117.25;;;;;;;8.28;85.27;99639.75;5032060;28;20555;-64
2023/01/08 03:54:32;;;;;;;288.83;116.25;;;;;;;8.44;83.56;99628.53;5038500;28;20103;-63
2023/01/08 03:57:21;;;;;;;285.15;117.45;;;;;;;8.15;84.25;99626.13;5036918;28;20061;-63
2023/01/08 04:00:03;;;;;;;284.92;121.32;;;;;;;8.09;85.13;99624.97;5037114;28;20064;-62
2023/01/08 04:02:52;;;;;;;282.00;117.45;;;;;;;8.17;85.31;99628.63;5041023;28;20052;-63
2023/01/08 04:05:43;;;;;;;288.45;119.28;;;;;;;8.27;84.86;99627.56;5011333;28;20715;-63
2023/01/08 04:08:25;;;;;;;303.65;121.28;;;;;;;8.48;84.62;99625.41;5026523;28;20049;-64
2023/01/08 04:11:15;;;;;;;277.27;114.95;;;;;;;8.43;84.31;99627.69;5034447;28;20127;-63
2023/01/08 04:13:56;;;;;;;270.13;114.13;;;;;;;8.38;85.00;99623.84;5041491;28;20111;-63
2023/01/08 04:16:46;;;;;;;282.52;112.15;;;;;;;8.46;83.92;99621.25;5033063;28;20516;-65
2023/01/08 04:19:27;;;;;;;264.63;111.22;;;;;;;8.25;83.75;99620.78;5041581;28;20128;-64
2023/01/08 04:22:17;;;;;;;277.77;113.10;;;;;;;8.24;84.52;99621.75;5046064;28;20077;-64
2023/01/08 04:24:58;;;;;;;268.63;108.82;;;;;;;8.36;84.05;99620.56;5046612;28;20045;-65
2023/01/08 04:27:47;;;;;;;256.30;108.40;;;;;;;8.27;84.30;99627.56;5028932;28;20464;-63
2023/01/08 04:30:30;;;;;;;262.45;112.18;;;;;;;8.54;83.49;99637.97;5032021;28;20067;-63
2023/01/08 04:33:18;;;;;;;261.50;110.38;;;;;;;8.50;83.42;99638.44;5030266;28;20091;-63
2023/01/08 04:36:01;;;;;;;257.95;107.80;;;;;;;8.56;83.36;99636.00;5037342;28;20056;-64
2023/01/08 04:38:51;;;;;;;260.92;109.95;;;;;;;8.84;83.95;99643.75;5045500;28;20504;-63
2023/01/08 04:41:45;;;;;;;268.92;112.38;;;;;;;8.67;82.54;99648.13;5039677;28;20080;-63
2023/01/08 04:44:33;;;;;;;270.05;110.30;;;;;;;8.85;82.26;99648.06;5045852;28;20624;-63
2023/01/08 04:47:22;;;;;;;253.05;110.30;;;;;;;8.82;82.04;99640.44;5054977;28;20052;-64
2023/01/08 04:50:04;;;;;;;261.00;110.00;;;;;;;8.97;82.51;99636.22;5045496;28;20049;-64
2023/01/08 04:52:59;;;;;;;260.92;110.63;;;;;;;9.16;81.57;99635.13;5053044;28;20583;-64
2023/01/08 04:55:35;;;;;;;260.33;109.03;;;;;;;9.23;81.66;99636.97;5057804;28;20648;-63
2023/01/08 04:58:30;;;;;;;258.27;109.70;;;;;;;9.22;81.35;99637.09;5044867;28;20114;-62
2023/01/08 05:01:18;;;;;;;242.75;105.15;;;;;;;9.68;81.50;99636.56;5055320;28;20118;-63
2023/01/08 05:04:10;;;;;;;250.43;107.25;;;;;;;9.68;80.46;99636.56;5054892;28;20565;-63
2023/01/08 05:06:51;;;;;;;245.05;104.72;;;;;;;9.84;79.77;99641.03;5051771;28;20049;-63
2023/01/08 05:09:46;;;;;;;261.00;110.13;;;;;;;9.93;79.50;99646.16;5044624;28;20049;-65
2023/01/08 05:12:22;;;;;;;246.57;110.10;;;;;;;10.25;79.45;99655.13;5049007;28;20052;-64
2023/01/08 05:15:17;;;;;;;248.50;110.28;;;;;;;9.86;78.25;99653.09;5057915;28;20048;-65
2023/01/08 05:18:04;;;;;;;239.88;102.15;;;;;;;9.97;78.90;99659.88;5054314;28;20828;-64
2023/01/08 05:20:54;;;;;;;232.93;103.32;;;;;;;10.61;78.75;99659.03;5058721;28;20136;-64
2023/01/08 05:23:37;;;;;;;244.43;107.88;;;;;;;10.66;77.39;99656.72;5055953;28;20055;-65
2023/01/08 05:26:26;;;;;;;232.00;104.15;;;;;;;10.80;76.62;99657.78;5061444;28;20048;-64
2023/01/08 05:29:16;;;;;;;231.52;99.82;;;;;;;10.84;75.94;99655.66;5065089;28;20090;-64
2023/01/08 05:32:19;;;;;;;242.77;103.88;;;;;;;10.91;74.53;99646.84;5063264;28;20492;-61
2023/01/08 05:34:55;;;;;;;235.45;103.60;;;;;;;10.92;75.29;99643.22;5053592;28;20049;-65
2023/01/08 05:37:49;;;;;;;243.88;104.97;;;;;;;10.86;75.99;99643.06;5054635;28;20055;-63
2023/01/08 05:40:25;;;;;;;235.18;102.68;;;;;;;10.88;75.90;99630.47;5051486;28;20056;-63
2023/01/08 05:43:14;;;;;;;243.40;107.95;;;;;;;11.44;76.17;99629.34;5053252;28;20048;-63
2023/01/08 05:45:56;;;;;;;230.30;103.68;;;;;;;11.44;74.35;99624.88;5051984;28;20048;-63
2023/01/08 05:48:45;;;;;;;235.43;106.82;;;;;;;11.81;73.07;99618.03;5061660;28;20696;-63
2023/01/08 05:51:34;;;;;;;227.95;107.93;;;;;;;12.30;71.41;99613.94;5051265;28;20078;-63
2023/01/08 05:54:29;;;;;;;231.02;104.55;;;;;;;12.47;70.60;99610.13;5047123;28;20479;-63
2023/01/08 05:57:05;;;;;;;233.07;105.05;;;;;;;12.34;69.87;99615.22;5052353;28;20052;-64
2023/01/08 05:59:59;;;;;;;220.60;102.43;;;;;;;12.22;70.47;99614.00;5055561;28;20487;-63
2023/01/08 06:02:38;;;;;;;239.77;108.47;;;;;;;12.79;69.27;99611.56;5054282;28;20044;-64
2023/01/08 06:05:34;;;;;;;232.57;107.05;;;;;;;12.17;70.09;99603.09;5035542;28;20072;-64
2023/01/08 06:08:09;;;;;;;230.85;104.05;;;;;;;12.22;70.55;99594.56;5050990;28;20407;-63
2023/01/08 06:11:05;;;;;;;224.05;103.70;;;;;;;12.63;69.90;99601.13;5055196;28;20513;-64
2023/01/08 06:13:50;;;;;;;231.80;106.28;;;;;;;12.70;69.93;99602.03;5046517;28;20044;-64
2023/01/08 06:16:46;;;;;;;217.07;100.72;;;;;;;12.67;68.72;99604.22;5054232;28;20048;-64
2023/01/08 06:19:21;;;;;;;216.13;98.18;;;;;;;12.80;67.49;99610.56;5053013;28;21382;-64
2023/01/08 06:22:16;;;;;;;239.95;104.88;;;;;;;13.17;67.32;99616.78;5043773;28;20160;-64
2023/01/08 06:24:52;;;;;;;245.13;109.45;;;;;;;13.88;66.46;99614.06;5043982;28;20052;-64
2023/01/08 06:27:41;;;;;;;259.95;113.35;;;;;;;14.54;64.28;99611.94;5051565;28;20045;-63
2023/01/08 06:30:30;;;;;;;239.38;105.05;;;;;;;14.94;62.03;99606.81;5053903;28;20052;-64
2023/01/08 06:33:26;;;;;;;219.48;100.40;;;;;;;13.91;64.03;99600.34;5062849;28;20571;-64
2023/01/08 06:36:04;;;;;;;212.88;99.93;;;;;;;14.83;62.12;99600.19;5054580;28;20044;-64
2023/01/08 06:38:58;;;;;;;222.93;104.20;;;;;;;14.83;61.25;99593.00;5052161;28;20067;-64
2023/01/08 06:41:34;;;;;;;214.88;100.75;;;;;;;15.20;60.61;99586.41;5055549;28;20078;-64
2023/01/08 06:44:28;;;;;;;200.65;95.35;;;;;;;15.59;59.16;99592.88;5054378;28;20147;-65
2023/01/08 06:47:17;;;;;;;196.95;96.22;;;;;;;14.99;60.03;99575.84;5051289;28;20059;-64
2023/01/08 06:50:07;;;;;;;202.10;95.28;;;;;;;14.84;60.69;99569.84;5055432;28;20405;-63
2023/01/08 06:52:53;;;;;;;196.30;97.57;;;;;;;14.83;62.07;99565.50;5051571;28;20056;-64
2023/01/08 06:55:42;;;;;;;196.70;100.13;;;;;;;15.34;60.95;99562.41;5053240;28;20055;-64
2023/01/08 06:58:29;;;;;;;181.45;92.45;;;;;;;15.71;58.66;99552.00;5050922;28;20045;-65
2023/01/08 07:01:22;;;;;;;202.83;95.53;;;;;;;15.63;59.37;99544.19;5051101;28;20040;-59
2023/01/08 07:04:04;;;;;;;194.05;97.05;;;;;;;15.74;59.40;99537.44;5052715;28;20282;-64
2023/01/08 07:06:53;;;;;;;184.18;94.43;;;;;;;15.57;60.05;99530.88;5050333;28;20044;-64
2023/01/08 07:09:42;;;;;;;191.98;96.50;;;;;;;15.40;59.61;99533.03;5049746;28;20705;-64
2023/01/08 07:12:31;;;;;;;168.30;86.38;;;;;;;15.20;58.59;99527.69;5050908;28;20118;-64
2023/01/08 07:15:14;;;;;;;183.27;91.03;;;;;;;15.44;57.89;99523.63;5054483;28;20041;-63
2023/01/08 07:18:04;;;;;;;183.50;92.43;;;;;;;15.49;57.26;99523.03;5051571;28;20163;-64
2023/01/08 07:20:48;;;;;;;177.23;91.10;;;;;;;15.67;57.02;99525.91;5047492;28;20056;-64
2023/01/08 07:23:40;;;;;;;184.13;91.88;;;;;;;15.71;57.63;99521.84;5047428;28;20061;-63
2023/01/08 07:26:22;;;;;;;167.90;89.60;;;;;;;15.69;56.78;99500.66;5061785;28;20051;-66
2023/01/08 07:29:11;;;;;;;175.35;87.28;;;;;;;16.00;56.02;99494.69;5049176;28;20114;-66
2023/01/08 07:32:01;;;;;;;170.60;85.72;;;;;;;15.79;54.60;99483.41;5053645;28;20044;-65
2023/01/08 07:34:44;;;;;;;176.35;89.32;;;;;;;15.98;54.61;99478.03;5058278;28;20049;-66
2023/01/08 07:37:39;;;;;;;175.73;88.82;;;;;;;15.85;54.15;99471.88;5054487;28;20768;-67
2023/01/08 07:40:15;;;;;;;176.68;91.57;;;;;;;15.79;55.66;99468.22;5054649;28;20634;-65
2023/01/08 07:43:05;;;;;;;188.40;96.20;;;;;;;15.88;54.44;99466.13;5048848;28;20132;-66
2023/01/08 07:46:01;;;;;;;180.18;93.65;;;;;;;15.94;55.82;99457.28;5039103;28;20049;-66
2023/01/08 07:48:56;;;;;;;198.85;97.93;;;;;;;16.14;55.21;99445.53;5016727;28;20049;-67
2023/01/08 07:51:32;;;;;;;178.82;96.38;;;;;;;16.25;55.04;99443.22;5033145;28;20049;-65
2023/01/08 07:54:27;;;;;;;180.13;93.22;;;;;;;16.25;53.70;99440.53;5022448;28;20423;-65
2023/01/08 07:57:03;;;;;;;181.25;90.32;;;;;;;16.53;53.04;99439.22;5031627;28;20053;-64
2023/01/08 07:59:58;;;;;;;185.60;92.10;;;;;;;16.62;53.04;99450.53;5036493;28;20068;-65
2023/01/08 08:02:34;;;;;;;182.48;89.93;;;;;;;16.53;51.81;99446.41;5039990;28;20044;-65
2023/01/08 08:05:29;;;;;;;177.07;90.43;;;;;;;16.71;51.29;99443.06;5013619;28;20523;-66
2023/01/08 08:08:09;;;;;;;184.23;92.03;;;;;;;16.58;50.65;99446.63;5035271;28;20052;-66
2023/01/08 08:11:06;;;;;;;194.70;97.03;;;;;;;16.58;53.08;99450.13;5030371;28;20053;-67
2023/01/08 08:13:43;;;;;;;174.10;90.63;;;;;;;16.57;52.04;99452.97;5040739;28;20055;-67
2023/01/08 08:16:34;;;;;;;180.82;92.07;;;;;;;16.71;52.60;99454.59;5040656;28;20135;-66
2023/01/08 08:19:23;;;;;;;170.48;89.50;;;;;;;17.12;52.28;99437.28;5031363;28;20144;-66
2023/01/08 08:22:19;;;;;;;165.93;89.53;;;;;;;16.87;52.66;99440.72;5038939;28;20045;-67
2023/01/08 08:24:55;;;;;;;173.50;88.88;;;;;;;17.28;52.00;99445.59;5035280;28;20643;-66
2023/01/08 08:27:44;;;;;;;166.43;86.50;;;;;;;16.86;51.39;99435.59;5027896;28;20053;-67
2023/01/08 08:30:35;;;;;;;156.38;84.72;;;;;;;17.07;51.58;99427.22;5031122;28;20046;-65
2023/01/08 08:33:17;;;;;;;161.77;86.32;;;;;;;16.63;51.51;99412.06;5029292;28;20052;-65
2023/01/08 08:36:05;;;;;;;153.82;84.30;;;;;;;16.57;51.84;99411.03;5023747;28;20045;-65
2023/01/08 08:38:47;;;;;;;159.50;82.05;;;;;;;16.87;52.37;99413.13;5023121;28;20635;-65
2023/01/08 08:41:36;;;;;;;145.95;79.40;;;;;;;16.45;52.46;99410.06;5034040;28;20057;-65
2023/01/08 08:44:18;;;;;;;146.13;82.18;;;;;;;16.19;53.55;99394.13;5040248;28;20064;-66
2023/01/08 08:47:08;;;;;;;143.13;79.60;;;;;;;16.31;54.23;99396.94;5051739;28;20053;-66
2023/01/08 08:49:49;;;;;;;143.18;79.70;;;;;;;16.71;52.92;99390.41;5059651;28;20054;-66
2023/01/08 08:52:39;;;;;;;140.57;78.30;;;;;;;16.74;53.04;99381.94;5063348;28;20048;-67
2023/01/08 08:55:35;;;;;;;146.95;76.97;;;;;;;16.88;51.86;99378.13;5056721;28;20131;-66
2023/01/08 08:58:13;;;;;;;141.55;77.32;;;;;;;16.68;52.05;99374.78;5052858;28;20048;-67
2023/01/08 09:01:02;;;;;;;128.15;73.47;;;;;;;16.97;50.87;99362.63;5030244;28;20049;-67
2023/01/08 09:03:44;;;;;;;135.05;75.70;;;;;;;17.05;51.51;99365.03;5040267;28;20049;-66
2023/01/08 09:06:33;;;;;;;128.15;74.25;;;;;;;17.14;50.84;99355.72;5055736;28;20110;-63
2023/01/08 09:09:22;;;;;;;143.27;76.78;;;;;;;16.88;49.69;99351.38;5042220;28;20068;-64
2023/01/08 09:12:06;;;;;;;131.63;75.20;;;;;;;16.89;51.65;99342.31;5055809;28;20131;-66
2023/01/08 09:14:55;;;;;;;135.77;72.82;;;;;;;17.09;51.75;99336.81;5052954;28;20194;-67
2023/01/08 09:17:38;;;;;;;133.75;75.10;;;;;;;17.07;51.60;99338.91;5060831;28;20051;-65
2023/01/08 09:20:28;;;;;;;127.93;74.45;;;;;;;16.70;51.75;99321.88;5054652;28;21550;-62
2023/01/08 09:23:10;;;;;;;136.98;74.68;;;;;;;16.48;51.96;99332.06;5060263;28;20781;-64
2023/01/08 09:26:08;;;;;;;135.50;75.70;;;;;;;16.66;53.70;99335.91;5056336;28;20454;-65
2023/01/08 09:28:50;;;;;;;134.07;77.30;;;;;;;16.48;51.66;99326.72;5062122;28;20044;-62
2023/01/08 09:31:39;;;;;;;135.43;76.50;;;;;;;16.51;51.52;99318.25;5055953;28;20059;-66
2023/01/08 09:34:30;;;;;;;127.97;76.03;;;;;;;16.57;51.86;99314.78;5043416;28;20057;-65
2023/01/08 09:37:18;;;;;;;137.20;73.50;;;;;;;16.58;51.96;99334.31;5049510;28;20467;-61
2023/01/08 09:40:13;;;;;;;128.50;71.60;;;;;;;16.44;52.37;99356.78;5051097;28;20471;-63
2023/01/08 09:43:02;;;;;;;127.53;72.68;;;;;;;16.56;52.62;99365.75;5051362;28;20049;-65
2023/01/08 09:46:01;;;;;;;129.93;71.68;;;;;;;16.46;52.04;99386.81;5041381;28;20045;-63
2023/01/08 09:48:52;;;;;;;126.45;71.47;;;;;;;16.30;52.55;99406.81;5041087;28;20057;-63
2023/01/08 09:51:40;;;;;;;122.65;72.97;;;;;;;16.13;54.05;99390.44;5041300;28;20677;-61
2023/01/08 09:54:36;;;;;;;122.35;69.05;;;;;;;15.90;54.74;99379.41;5031399;28;20147;-63
2023/01/08 09:57:18;;;;;;;128.93;70.88;;;;;;;15.79;55.54;99390.75;5036345;28;20041;-67
2023/01/08 10:00:26;;;;;;;129.38;72.25;;;;;;;15.74;56.49;99385.22;5028955;28;20056;-65
2023/01/08 10:03:03;;;;;;;135.63;73.97;;;;;;;15.70;56.75;99381.31;5033202;28;20052;-66
2023/01/08 10:05:58;;;;;;;130.50;78.22;;;;;;;15.68;56.98;99381.50;5042396;28;20057;-61
2023/01/08 10:08:34;;;;;;;136.13;76.72;;;;;;;15.48;56.61;99361.19;5040511;28;20045;-65
2023/01/08 10:11:25;;;;;;;137.85;77.20;;;;;;;15.50;57.48;99357.31;5039323;28;20088;-64
2023/01/08 10:14:07;;;;;;;131.73;78.63;;;;;;;15.45;57.87;99354.41;5040813;28;20144;-63
2023/01/08 10:17:13;;;;;;;145.45;80.97;;;;;;;15.50;59.55;99346.63;5039946;28;20083;-62
2023/01/08 10:20:03;;;;;;;139.95;80.05;;;;;;;15.60;58.30;99357.72;5040315;28;20045;-69
2023/01/08 10:22:49;;;;;;;164.93;86.20;;;;;;;15.65;58.36;99349.91;5041117;28;20045;-65
2023/01/08 10:25:38;;;;;;;154.85;86.65;;;;;;;15.68;58.74;99344.13;5042670;28;20048;-67
2023/01/08 10:28:30;;;;;;;163.77;84.35;;;;;;;15.70;58.08;99342.09;4694655;28;9999727;-62
2023/01/08 10:31:22;;;;;;;152.15;85.95;;;;;;;15.82;58.09;99328.88;5036168;28;20071;-65
2023/01/08 10:34:10;;;;;;;153.65;84.32;;;;;;;15.84;59.00;99329.50;5026071;28;20091;-65
2023/01/08 10:37:01;;;;;;;161.48;83.15;;;;;;;15.82;57.96;99333.41;5037841;28;20045;-65
2023/01/08 10:39:54;;;;;;;146.48;81.45;;;;;;;15.83;57.11;99327.03;5027764;28;20771;-64
2023/01/08 10:42:42;;;;;;;146.38;82.05;;;;;;;15.94;57.71;99319.19;5031758;28;20114;-64
2023/01/08 10:45:33;;;;;;;149.73;82.07;;;;;;;16.12;57.36;99321.16;5042665;28;20063;-67
2023/01/08 10:48:32;;;;;;;140.43;77.90;;;;;;;16.12;57.01;99313.13;5059150;28;20048;-63
2023/01/08 10:51:15;;;;;;;134.18;78.57;;;;;;;16.16;56.18;99315.19;5058137;28;20052;-66
2023/01/08 10:54:42;;;;;;;129.40;76.00;;;;;;;16.18;56.90;99318.47;5057891;28;20114;-71
2023/01/08 10:57:31;;;;;;;129.27;71.75;;;;;;;15.78;54.15;99319.66;5058567;28;20076;-66
2023/01/08 11:00:38;;;;;;;125.43;69.68;;;;;;;15.91;54.93;99311.59;5058051;28;20570;-64
2023/01/08 11:03:31;;;;;;;132.05;69.55;;;;;;;15.99;53.57;99313.19;5058188;28;20049;-63
2023/01/08 11:06:33;;;;;;;125.22;69.88;;;;;;;16.12;54.99;99324.66;5060749;28;20070;-65
2023/01/08 11:09:26;;;;;;;123.75;70.15;;;;;;;16.30;54.52;99323.13;5060652;28;20051;-62
2023/01/08 11:12:21;;;;;;;130.63;70.63;;;;;;;16.33;54.78;99328.84;5061259;28;20040;-64
2023/01/08 11:15:05;;;;;;;123.10;70.20;;;;;;;16.18;54.97;99323.00;5062314;28;20135;-64
2023/01/08 11:18:09;;;;;;;125.80;69.03;;;;;;;16.04;55.81;99321.41;5061183;28;20045;-64
2023/01/08 11:20:46;;;;;;;122.72;70.57;;;;;;;15.94;55.03;99319.19;5040040;28;20831;-64
2023/01/08 11:23:36;;;;;;;128.48;68.72;;;;;;;15.85;55.14;99312.44;5038718;28;20053;-64
2023/01/08 11:26:27;;;;;;;126.20;68.40;;;;;;;15.98;56.00;99325.75;5041767;28;20052;-64
2023/01/08 11:29:36;;;;;;;116.45;66.47;;;;;;;15.96;55.18;99309.13;5050970;28;20578;-64
2023/01/08 11:32:49;;;;;;;126.13;68.90;;;;;;;15.78;56.30;99322.34;5060661;28;20404;-63
2023/01/08 11:35:44;;;;;;;126.50;74.70;;;;;;;15.44;57.43;99325.28;5053376;28;20056;-65
2023/01/08 11:38:25;;;;;;;132.93;74.32;;;;;;;15.36;59.76;99320.94;5060078;28;20144;-65
2023/01/08 11:41:29;;;;;;;133.43;75.07;;;;;;;15.40;58.87;99334.72;5057017;28;20048;-62
2023/01/08 11:44:45;;;;;;;131.23;73.78;;;;;;;15.45;57.56;99329.56;5029458;28;20489;-64
2023/01/08 11:48:16;;;;;;;126.13;71.25;;;;;;;15.25;58.54;99319.75;5004019;28;20048;-65
2023/01/08 11:51:13;;;;;;;127.70;71.88;;;;;;;15.03;59.05;99317.50;5028698;28;20048;-64
2023/01/08 11:54:16;;;;;;;138.18;75.88;;;;;;;14.83;60.25;99320.16;5039707;28;20691;-64
2023/01/08 11:57:19;;;;;;;134.07;71.97;;;;;;;14.85;60.29;99331.47;5040781;28;20060;-64
2023/01/08 12:00:36;;;;;;;136.52;74.43;;;;;;;14.87;60.13;99333.94;5051353;28;20056;-65
2023/01/08 12:03:36;;;;;;;135.75;76.00;;;;;;;14.73;60.35;99319.75;5023257;28;20057;-66
2023/01/08 12:07:03;;;;;;;143.20;79.47;;;;;;;14.80;61.30;99312.59;5041072;28;20057;-65
2023/01/08 12:09:46;;;;;;;138.00;81.03;;;;;;;14.87;60.45;99328.59;5019453;28;20194;-64
2023/01/08 12:12:45;;;;;;;159.32;84.15;;;;;;;14.88;60.72;99356.88;5034837;28;20056;-65
2023/01/08 12:15:40;;;;;;;150.15;83.47;;;;;;;14.75;61.29;99373.69;5030860;28;20057;-65
2023/01/08 12:18:35;;;;;;;156.35;87.45;;;;;;;14.46;62.92;99366.06;5034098;28;20045;-65
2023/01/08 12:21:39;;;;;;;143.32;83.53;;;;;;;14.39;64.02;99355.34;5035177;28;20049;-66
2023/01/08 12:24:53;;;;;;;153.70;84.15;;;;;;;14.28;64.26;99355.94;5044572;28;20106;-65
2023/01/08 12:27:57;;;;;;;147.45;85.43;;;;;;;14.18;65.71;99358.97;5039869;28;20484;-64
2023/01/08 12:31:18;;;;;;;157.80;86.05;;;;;;;14.09;65.71;99357.50;5044311;28;20063;-65
2023/01/08 12:34:16;;;;;;;176.18;91.82;;;;;;;14.06;65.92;99343.75;5025957;28;20048;-65
2023/01/08 12:37:20;;;;;;;;;;;;;;;14.18;66.25;99329.66;5042654;28;20824;-65
2023/01/08 12:40:20;;;;;;;155.77;84.90;;;;;;;14.23;65.76;99321.06;5063831;28;20035;-63
2023/01/08 12:43:22;;;;;;;156.95;87.60;;;;;;;14.06;66.33;99319.78;5062998;28;20052;-65
2023/01/08 12:46:19;;;;;;;163.43;91.10;;;;;;;14.08;66.71;99312.41;5055718;28;20156;-64
2023/01/08 12:49:18;;;;;;;169.93;92.65;;;;;;;13.84;67.95;99316.41;5045215;28;20068;-63
2023/01/08 12:52:15;;;;;;;169.35;92.70;;;;;;;13.86;67.86;99314.38;5043489;28;20544;-65
2023/01/08 12:55:16;;;;;;;164.65;93.57;;;;;;;13.57;68.59;99320.78;5044344;28;20191;-64